Nullarbor, Australia
Current Conditions -  °F | °C
As of 11:00 PM on Tuesday 21 Oct 2014 (Local Time) from YCDU Reporting Station
Clear Clear  
Wind Chill: 64°   Ceiling: Unl
Heat Index: 64°   Visibility: 6mi
Dew Point: 59°   Wind: 9mph
Humidity: 83%   Direction: 200°SSW
Pressure: 30.12"   Gusts: NA
Location:  31.45°S, 130.89°E
Report Text: YCDU 211300Z AUTO 20008KT 9999 // NCD 18/15 Q1020
Loading
Personal Weather Stations






























Interactive Weather Map
Tropical Storm Tracking
New forecast layout! Learn more

10-Day Weather Forecast

Advertisements
Track Severe Weather on mobile